createdAt,value
2022-12-27T00:00:27.221Z,9.40
2022-12-27T00:03:15.361Z,6.30
2022-12-27T00:05:50.211Z,6.40
2022-12-27T00:08:18.263Z,5.00
2022-12-27T00:10:46.355Z,4.60
2022-12-27T00:13:14.394Z,3.70
2022-12-27T00:15:42.698Z,5.70
2022-12-27T00:18:10.810Z,6.90
2022-12-27T00:20:40.240Z,7.40
2022-12-27T00:23:08.246Z,3.90
2022-12-27T00:25:36.198Z,7.90
2022-12-27T00:28:04.496Z,6.00
2022-12-27T00:30:32.612Z,7.80
2022-12-27T00:33:00.671Z,10.50
2022-12-27T00:35:29.019Z,6.50
2022-12-27T00:37:57.015Z,6.90
2022-12-27T00:40:24.908Z,15.10
2022-12-27T00:42:52.957Z,14.50
2022-12-27T00:45:20.853Z,10.60
2022-12-27T00:47:49.067Z,8.50
2022-12-27T00:50:18.521Z,19.60
2022-12-27T00:52:46.484Z,14.00
2022-12-27T00:55:18.362Z,11.50
2022-12-27T00:57:49.805Z,11.90
2022-12-27T01:00:18.199Z,11.90
2022-12-27T01:02:49.417Z,10.90
2022-12-27T01:05:18.125Z,8.00
2022-12-27T01:07:46.112Z,12.50
2022-12-27T01:10:14.073Z,9.00
2022-12-27T01:12:44.525Z,10.50
2022-12-27T01:15:12.724Z,10.00
2022-12-27T01:17:40.559Z,7.00
2022-12-27T01:20:11.577Z,10.40
2022-12-27T01:22:39.714Z,12.10
2022-12-27T01:25:08.000Z,10.10
2022-12-27T01:27:36.197Z,10.30
2022-12-27T01:30:07.113Z,7.70
2022-12-27T01:32:37.262Z,9.30
2022-12-27T01:35:05.664Z,9.80
2022-12-27T01:37:33.572Z,7.30
2022-12-27T01:40:01.656Z,12.20
2022-12-27T01:42:48.507Z,9.80
2022-12-27T01:45:23.325Z,14.00
2022-12-27T01:48:02.902Z,9.10
2022-12-27T01:50:30.850Z,9.20
2022-12-27T01:53:10.906Z,11.40
2022-12-27T01:55:57.585Z,12.60
2022-12-27T01:58:36.919Z,10.00
2022-12-27T02:01:13.910Z,11.50
2022-12-27T02:03:48.493Z,6.80
2022-12-27T02:06:21.192Z,11.80
2022-12-27T02:09:14.023Z,8.50
2022-12-27T02:11:51.266Z,9.60
2022-12-27T02:14:44.530Z,12.00
2022-12-27T02:17:30.286Z,12.50
2022-12-27T02:23:28.583Z,10.80
2022-12-27T02:26:37.947Z,5.70
2022-12-27T02:29:10.179Z,7.20
2022-12-27T02:31:57.070Z,11.00
2022-12-27T02:34:54.074Z,9.70
2022-12-27T02:37:29.101Z,10.20
2022-12-27T02:40:21.705Z,13.90
2022-12-27T02:43:12.062Z,8.90
2022-12-27T02:46:21.343Z,12.40
2022-12-27T02:49:19.256Z,9.20
2022-12-27T02:52:11.955Z,11.90
2022-12-27T02:55:12.996Z,9.30
2022-12-27T02:57:59.939Z,11.20
2022-12-27T03:01:02.296Z,8.80
2022-12-27T03:03:39.690Z,11.70
2022-12-27T03:06:40.221Z,10.00
2022-12-27T03:09:58.677Z,12.10
2022-12-27T03:13:02.207Z,9.90
2022-12-27T03:15:59.807Z,10.80
2022-12-27T03:18:27.712Z,9.70
2022-12-27T03:21:19.983Z,8.50
2022-12-27T03:24:12.238Z,8.00
2022-12-27T03:26:47.023Z,9.80
2022-12-27T03:29:40.976Z,5.80
2022-12-27T03:32:32.012Z,12.30
2022-12-27T03:35:24.908Z,4.20
2022-12-27T03:38:08.523Z,7.20
2022-12-27T03:41:20.803Z,6.60
2022-12-27T03:43:53.932Z,12.10
2022-12-27T03:46:34.270Z,11.70
2022-12-27T03:49:18.946Z,9.00
2022-12-27T03:52:19.424Z,12.00
2022-12-27T03:54:52.805Z,9.00
2022-12-27T03:57:28.121Z,6.20
2022-12-27T03:59:56.334Z,5.40
2022-12-27T04:02:29.303Z,6.50
2022-12-27T04:04:58.996Z,10.60
2022-12-27T04:07:26.841Z,10.20
2022-12-27T04:10:13.633Z,7.60
2022-12-27T04:13:00.113Z,5.80
2022-12-27T04:15:47.449Z,11.80
2022-12-27T04:18:34.183Z,9.50
2022-12-27T04:21:20.822Z,10.00
2022-12-27T04:24:07.435Z,13.10
2022-12-27T04:26:53.892Z,11.60
2022-12-27T04:29:40.591Z,7.30
2022-12-27T04:32:27.325Z,6.70
2022-12-27T04:34:55.264Z,8.70
2022-12-27T04:37:23.151Z,10.00
2022-12-27T04:40:09.919Z,9.80
2022-12-27T04:42:56.811Z,12.90
2022-12-27T04:45:43.548Z,6.90
2022-12-27T04:48:35.096Z,11.10
2022-12-27T04:51:22.046Z,7.50
2022-12-27T04:54:08.981Z,7.30
2022-12-27T04:56:41.553Z,9.10
2022-12-27T04:59:28.188Z,9.30
2022-12-27T05:02:05.316Z,9.20
2022-12-27T05:04:41.812Z,12.90
2022-12-27T05:07:33.961Z,9.00
2022-12-27T05:10:25.080Z,8.70
2022-12-27T05:13:11.795Z,8.00
2022-12-27T05:15:39.800Z,11.30
2022-12-27T05:18:07.780Z,10.20
2022-12-27T05:20:35.728Z,9.00
2022-12-27T05:23:22.607Z,10.00
2022-12-27T05:25:54.069Z,6.90
2022-12-27T05:28:22.175Z,7.20
2022-12-27T05:30:50.045Z,8.30
2022-12-27T05:33:18.062Z,7.70
2022-12-27T05:35:46.119Z,8.60
2022-12-27T05:38:14.080Z,6.50
2022-12-27T05:40:42.097Z,9.90
2022-12-27T05:43:09.992Z,14.60
2022-12-27T05:45:38.165Z,8.70
2022-12-27T05:48:06.305Z,8.80
2022-12-27T05:50:36.615Z,8.80
2022-12-27T05:53:16.920Z,14.00
2022-12-27T05:55:44.902Z,8.30
2022-12-27T05:58:12.874Z,9.00
2022-12-27T06:00:40.719Z,17.60
2022-12-27T06:03:08.944Z,7.50
2022-12-27T06:05:37.042Z,7.00
2022-12-27T06:08:05.316Z,12.60
2022-12-27T06:10:33.374Z,11.50
2022-12-27T06:13:01.950Z,8.80
2022-12-27T06:15:33.833Z,8.20
2022-12-27T06:18:06.753Z,9.10
2022-12-27T06:20:35.290Z,5.20
2022-12-27T06:23:03.379Z,8.90
2022-12-27T06:25:31.445Z,13.20
2022-12-27T06:27:59.561Z,8.50
2022-12-27T06:30:30.413Z,12.50
2022-12-27T06:33:05.524Z,7.00
2022-12-27T06:35:33.435Z,14.30
2022-12-27T06:38:01.433Z,9.00
2022-12-27T06:40:29.545Z,10.00
2022-12-27T06:42:57.605Z,8.60
2022-12-27T06:45:25.677Z,10.80
2022-12-27T06:47:56.796Z,6.70
2022-12-27T06:50:24.939Z,11.80
2022-12-27T06:52:56.471Z,10.20
2022-12-27T06:55:24.475Z,12.80
2022-12-27T06:57:52.607Z,10.80
2022-12-27T07:00:23.999Z,16.30
2022-12-27T07:02:52.070Z,17.40
2022-12-27T07:05:23.775Z,13.10
2022-12-27T07:07:57.208Z,7.00
2022-12-27T07:10:25.232Z,10.90
2022-12-27T07:12:53.308Z,11.00
2022-12-27T07:15:21.289Z,11.80
2022-12-27T07:17:49.386Z,11.20
2022-12-27T07:20:17.534Z,11.10
2022-12-27T07:22:45.566Z,13.60
2022-12-27T07:25:13.654Z,14.50
2022-12-27T07:27:41.562Z,12.60
2022-12-27T07:30:10.143Z,13.60
2022-12-27T07:32:38.032Z,13.10
2022-12-27T07:35:09.685Z,11.50
2022-12-27T07:37:38.027Z,9.70
2022-12-27T07:40:09.243Z,12.10
2022-12-27T07:42:37.205Z,12.50
2022-12-27T07:45:05.645Z,9.50
2022-12-27T07:47:33.798Z,11.10
2022-12-27T07:50:04.599Z,9.90
2022-12-27T07:52:32.466Z,11.90
2022-12-27T07:55:00.548Z,11.70
2022-12-27T07:57:32.560Z,15.00
2022-12-27T08:00:00.624Z,16.80
2022-12-27T08:02:32.356Z,14.10
2022-12-27T08:05:06.546Z,12.50
2022-12-27T08:07:34.595Z,9.60
2022-12-27T08:10:02.532Z,16.00
2022-12-27T08:12:30.641Z,11.40
2022-12-27T08:14:58.747Z,14.60
2022-12-27T08:17:30.788Z,14.00
2022-12-27T08:19:58.796Z,13.30
2022-12-27T08:22:26.824Z,12.00
2022-12-27T08:24:59.436Z,15.30
2022-12-27T08:27:30.954Z,18.10
2022-12-27T08:29:58.858Z,10.20
2022-12-27T08:32:26.996Z,11.90
2022-12-27T08:34:54.890Z,17.00
2022-12-27T08:37:23.005Z,11.40
2022-12-27T08:39:50.919Z,8.60
2022-12-27T08:42:19.065Z,11.10
2022-12-27T08:44:47.023Z,9.40
2022-12-27T08:47:14.975Z,12.20
2022-12-27T08:49:43.005Z,16.50
2022-12-27T08:52:10.994Z,18.20
2022-12-27T08:54:38.982Z,13.10
2022-12-27T08:57:06.903Z,13.20
2022-12-27T08:59:35.041Z,9.30
2022-12-27T09:02:03.191Z,16.00
2022-12-27T09:04:35.330Z,11.50
2022-12-27T09:07:06.699Z,10.40
2022-12-27T09:09:38.053Z,13.60
2022-12-27T09:12:09.338Z,13.50
2022-12-27T09:14:40.667Z,13.10
2022-12-27T09:17:09.969Z,14.70
2022-12-27T09:19:38.107Z,13.50
2022-12-27T09:22:06.029Z,27.90
2022-12-27T09:24:34.136Z,131.10
2022-12-27T09:27:02.052Z,31.30
2022-12-27T09:29:33.553Z,21.80
2022-12-27T09:32:05.016Z,46.10
2022-12-27T09:34:33.004Z,31.70
2022-12-27T09:37:01.046Z,12.10
2022-12-27T09:39:29.027Z,21.50
2022-12-27T09:42:49.566Z,15.60
2022-12-27T09:45:22.833Z,23.80
2022-12-27T09:48:20.554Z,27.90
2022-12-27T09:51:03.292Z,26.40
2022-12-27T09:54:00.493Z,22.90
2022-12-27T09:57:01.748Z,93.70
2022-12-27T09:59:45.508Z,67.10
2022-12-27T10:02:22.109Z,59.10
2022-12-27T10:08:07.320Z,100.90
2022-12-27T10:10:53.045Z,53.10
2022-12-27T10:16:14.602Z,32.30
2022-12-27T10:19:00.674Z,18.50
2022-12-27T10:21:35.849Z,80.90
2022-12-27T10:24:37.077Z,232.50
2022-12-27T10:27:24.548Z,108.50
2022-12-27T10:29:57.682Z,59.20
2022-12-27T10:32:30.214Z,37.20
2022-12-27T10:35:04.397Z,55.80
2022-12-27T10:37:32.650Z,54.80
2022-12-27T10:40:42.424Z,25.20
2022-12-27T10:43:19.993Z,29.30
2022-12-27T10:45:51.756Z,45.50
2022-12-27T10:48:47.269Z,19.20
2022-12-27T10:51:24.570Z,12.20
2022-12-27T10:54:04.511Z,16.00
2022-12-27T10:56:39.303Z,13.90
2022-12-27T10:59:12.929Z,17.90
2022-12-27T11:01:43.124Z,23.20
2022-12-27T11:04:21.573Z,20.10
2022-12-27T11:07:02.801Z,15.70
2022-12-27T11:09:33.914Z,12.50
2022-12-27T11:12:15.042Z,14.30
2022-12-27T11:15:16.984Z,15.90
2022-12-27T11:17:55.457Z,20.20
2022-12-27T11:20:29.986Z,13.80
2022-12-27T11:23:10.256Z,12.50
2022-12-27T11:25:55.589Z,14.40
2022-12-27T11:29:16.367Z,66.00
2022-12-27T11:31:48.768Z,97.50
2022-12-27T11:34:39.959Z,26.90
2022-12-27T11:37:16.348Z,15.20
2022-12-27T11:39:44.402Z,25.30
2022-12-27T11:42:38.533Z,75.20
2022-12-27T11:45:12.596Z,108.60
2022-12-27T11:47:43.603Z,523.80
2022-12-27T11:50:43.698Z,102.90
2022-12-27T11:53:56.324Z,118.00
2022-12-27T11:56:37.756Z,48.50
2022-12-27T11:59:27.483Z,46.80
2022-12-27T12:02:21.963Z,175.70
2022-12-27T12:05:01.698Z,37.10
2022-12-27T12:07:45.298Z,14.50
2022-12-27T12:10:28.281Z,73.90
2022-12-27T12:13:11.581Z,20.90
2022-12-27T12:16:15.785Z,32.40
2022-12-27T12:18:43.687Z,29.80
2022-12-27T12:21:27.525Z,34.90
2022-12-27T12:24:20.040Z,23.10
2022-12-27T12:27:33.839Z,75.30
2022-12-27T12:30:11.101Z,37.20
2022-12-27T12:32:53.505Z,162.30
2022-12-27T12:35:28.225Z,72.40
2022-12-27T12:38:25.675Z,56.00
2022-12-27T12:41:48.271Z,61.20
2022-12-27T12:44:47.551Z,27.00
2022-12-27T12:47:41.857Z,26.00
2022-12-27T12:50:32.180Z,22.10
2022-12-27T12:53:05.854Z,36.00
2022-12-27T12:55:53.741Z,25.80
2022-12-27T12:58:46.081Z,66.10
2022-12-27T13:01:35.986Z,61.00
2022-12-27T13:04:38.620Z,32.10
2022-12-27T13:07:30.414Z,24.10
2022-12-27T13:10:15.016Z,18.40
2022-12-27T13:13:04.435Z,25.80
2022-12-27T13:16:01.304Z,76.60
2022-12-27T13:18:58.237Z,43.30
2022-12-27T13:21:40.149Z,58.30
2022-12-27T13:24:23.668Z,23.70
2022-12-27T13:27:26.856Z,13.60
2022-12-27T13:30:12.742Z,14.40
2022-12-27T13:35:52.081Z,28.00
2022-12-27T13:38:27.082Z,19.50
2022-12-27T13:41:08.502Z,20.00
2022-12-27T13:43:54.653Z,19.80
2022-12-27T13:46:54.522Z,16.80
2022-12-27T13:49:28.724Z,13.40
2022-12-27T13:52:24.023Z,25.70
2022-12-27T13:58:11.831Z,27.00
2022-12-27T14:01:11.433Z,84.10
2022-12-27T14:03:48.353Z,100.50
2022-12-27T14:06:19.516Z,88.90
2022-12-27T14:09:24.581Z,60.10
2022-12-27T14:12:38.033Z,99.90
2022-12-27T14:15:14.440Z,87.60
2022-12-27T14:18:17.082Z,83.70
2022-12-27T14:20:45.049Z,45.20
2022-12-27T14:23:27.103Z,44.00
2022-12-27T14:26:32.345Z,28.20
2022-12-27T14:29:45.407Z,36.20
2022-12-27T14:32:54.938Z,29.00
2022-12-27T14:35:51.837Z,27.90
2022-12-27T14:38:50.656Z,20.20
2022-12-27T14:41:47.124Z,21.10
2022-12-27T14:44:18.160Z,13.70
2022-12-27T14:47:01.159Z,20.40
2022-12-27T14:49:47.602Z,24.20
2022-12-27T14:52:37.025Z,53.10
2022-12-27T14:55:23.748Z,25.90
2022-12-27T14:58:15.609Z,27.40
2022-12-27T15:01:05.020Z,21.10
2022-12-27T15:04:05.837Z,29.50
2022-12-27T15:06:55.807Z,22.10
2022-12-27T15:09:59.384Z,14.10
2022-12-27T15:13:15.347Z,20.80
2022-12-27T15:16:14.804Z,17.80
2022-12-27T15:19:06.554Z,32.10
2022-12-27T15:21:43.963Z,32.10
2022-12-27T15:24:26.844Z,34.50
2022-12-27T15:27:20.047Z,31.60
2022-12-27T15:30:18.993Z,30.10
2022-12-27T15:35:37.828Z,20.40
2022-12-27T15:38:11.816Z,19.10
2022-12-27T15:41:00.077Z,17.40
2022-12-27T15:43:46.884Z,16.40
2022-12-27T15:46:52.944Z,17.60
2022-12-27T15:49:43.655Z,22.60
2022-12-27T15:52:26.942Z,17.10
2022-12-27T15:55:32.895Z,16.80
2022-12-27T15:58:01.404Z,31.10
2022-12-27T16:00:34.689Z,26.20
2022-12-27T16:03:25.149Z,32.00
2022-12-27T16:05:57.073Z,21.30
2022-12-27T16:08:35.291Z,20.20
2022-12-27T16:11:08.861Z,31.60
2022-12-27T16:13:48.237Z,24.90
2022-12-27T16:16:54.155Z,41.20
2022-12-27T16:19:41.038Z,49.60
2022-12-27T16:22:25.026Z,53.70
2022-12-27T16:24:56.614Z,20.70
2022-12-27T16:27:31.205Z,22.70
2022-12-27T16:30:02.933Z,19.00
2022-12-27T16:32:31.059Z,28.60
2022-12-27T16:35:18.670Z,37.90
2022-12-27T16:37:56.861Z,39.40
2022-12-27T16:40:40.275Z,25.00
2022-12-27T16:43:08.171Z,22.90
2022-12-27T16:45:39.445Z,31.60
2022-12-27T16:48:22.532Z,24.40
2022-12-27T16:51:28.533Z,71.20
2022-12-27T16:54:04.346Z,59.90
2022-12-27T16:59:45.309Z,33.70
2022-12-27T17:02:43.421Z,22.30
2022-12-27T17:05:18.219Z,45.60
2022-12-27T17:07:52.403Z,62.70
2022-12-27T17:10:35.475Z,31.20
2022-12-27T17:13:03.519Z,24.70
2022-12-27T17:15:37.666Z,26.60
2022-12-27T17:18:20.003Z,20.60
2022-12-27T17:21:04.046Z,26.00
2022-12-27T17:23:42.051Z,51.00
2022-12-27T17:26:40.054Z,44.80
2022-12-27T17:29:46.087Z,30.40
2022-12-27T17:32:20.032Z,54.60
2022-12-27T17:35:01.192Z,37.40
2022-12-27T17:37:38.480Z,36.70
2022-12-27T17:40:46.417Z,34.30
2022-12-27T17:44:14.631Z,23.20
2022-12-27T17:47:16.487Z,21.00
2022-12-27T17:49:44.584Z,28.50
2022-12-27T17:52:43.231Z,20.70
2022-12-27T17:55:43.116Z,36.10
2022-12-27T17:58:16.969Z,25.40
2022-12-27T18:00:56.748Z,19.70
2022-12-27T18:03:33.477Z,27.00
2022-12-27T18:06:04.872Z,17.30
2022-12-27T18:08:37.043Z,29.90
2022-12-27T18:11:11.143Z,18.00
2022-12-27T18:13:53.856Z,15.20
2022-12-27T18:16:35.971Z,18.90
2022-12-27T18:19:07.510Z,24.20
2022-12-27T18:21:35.600Z,21.30
2022-12-27T18:24:31.385Z,16.80
2022-12-27T18:27:18.943Z,20.70
2022-12-27T18:29:50.568Z,19.10
2022-12-27T18:32:23.535Z,16.90
2022-12-27T18:35:05.540Z,39.30
2022-12-27T18:37:39.488Z,37.60
2022-12-27T18:40:21.841Z,434.20
2022-12-27T18:42:53.963Z,71.90
2022-12-27T18:45:39.838Z,49.30
2022-12-27T18:48:14.985Z,85.50
2022-12-27T18:50:53.818Z,347.40
2022-12-27T18:53:35.946Z,190.00
2022-12-27T18:56:25.576Z,373.90
2022-12-27T18:59:06.625Z,353.10
2022-12-27T19:01:44.910Z,181.40
2022-12-27T19:04:20.340Z,360.90
2022-12-27T19:07:00.837Z,141.10
2022-12-27T19:09:41.063Z,1257.40
2022-12-27T19:12:29.290Z,801.40
2022-12-27T19:14:57.680Z,605.50
2022-12-27T19:17:31.816Z,411.80
2022-12-27T19:20:08.272Z,508.00
2022-12-27T19:22:44.187Z,649.90
2022-12-27T19:25:23.549Z,443.30
2022-12-27T19:28:02.112Z,498.40
2022-12-27T19:30:38.061Z,929.20
2022-12-27T19:35:43.555Z,441.50
2022-12-27T19:38:24.778Z,618.80
2022-12-27T19:41:03.119Z,351.10
2022-12-27T19:43:42.547Z,749.50
2022-12-27T19:46:14.790Z,378.00
2022-12-27T19:49:07.567Z,799.50
2022-12-27T19:51:38.542Z,465.10
2022-12-27T19:54:19.006Z,254.10
2022-12-27T19:56:50.926Z,266.80
2022-12-27T19:59:25.509Z,297.10
2022-12-27T20:01:53.955Z,410.90
2022-12-27T20:04:25.250Z,705.10
2022-12-27T20:06:56.918Z,675.40
2022-12-27T20:09:24.910Z,389.10
2022-12-27T20:11:54.189Z,325.50
2022-12-27T20:14:23.889Z,891.10
2022-12-27T20:16:51.936Z,780.30
2022-12-27T20:19:26.701Z,764.40
2022-12-27T20:21:54.998Z,927.80
2022-12-27T20:24:23.547Z,818.20
2022-12-27T20:26:51.759Z,777.00
2022-12-27T20:29:24.122Z,607.60
2022-12-27T20:31:54.573Z,421.50
2022-12-27T20:34:22.809Z,765.90
2022-12-27T20:36:54.759Z,1219.20
2022-12-27T20:39:23.055Z,795.00
2022-12-27T20:41:51.118Z,785.30
2022-12-27T20:44:19.413Z,738.00
2022-12-27T20:46:53.014Z,288.00
2022-12-27T20:49:21.212Z,732.90
2022-12-27T20:51:49.321Z,655.80
2022-12-27T20:54:17.518Z,292.50
2022-12-27T20:56:48.805Z,584.40
2022-12-27T20:59:16.827Z,455.70
2022-12-27T21:01:44.893Z,370.10
2022-12-27T21:04:13.102Z,190.10
2022-12-27T21:06:41.228Z,599.00
2022-12-27T21:09:09.406Z,279.90
2022-12-27T21:11:37.439Z,325.10
2022-12-27T21:14:10.711Z,216.60
2022-12-27T21:16:42.299Z,409.40
2022-12-27T21:19:10.408Z,294.30
2022-12-27T21:21:41.539Z,295.50
2022-12-27T21:24:14.155Z,458.10
2022-12-27T21:26:43.574Z,188.40
2022-12-27T21:29:12.936Z,277.70
2022-12-27T21:31:41.048Z,198.30
2022-12-27T21:34:09.162Z,272.20
2022-12-27T21:36:40.685Z,223.80
2022-12-27T21:39:09.048Z,196.90
2022-12-27T21:41:41.629Z,190.20
2022-12-27T21:44:12.961Z,157.00
2022-12-27T21:46:45.115Z,256.80
2022-12-27T21:49:17.402Z,168.10
2022-12-27T21:51:51.828Z,90.90
2022-12-27T21:54:19.837Z,98.10
2022-12-27T21:56:47.983Z,268.40
2022-12-27T21:59:16.008Z,377.90
2022-12-27T22:01:50.152Z,308.50
2022-12-27T22:04:21.746Z,195.50
2022-12-27T22:06:52.002Z,95.60
2022-12-27T22:09:20.163Z,83.80
2022-12-27T22:11:51.109Z,47.80
2022-12-27T22:14:24.931Z,46.40
2022-12-27T22:16:53.748Z,72.80
2022-12-27T22:19:22.014Z,49.50
2022-12-27T22:21:50.107Z,51.60
2022-12-27T22:24:21.595Z,81.40
2022-12-27T22:26:52.489Z,47.00
2022-12-27T22:29:24.881Z,42.30
2022-12-27T22:31:52.850Z,41.50
2022-12-27T22:34:20.997Z,37.30
2022-12-27T22:36:56.057Z,54.80
2022-12-27T22:39:27.368Z,51.80
2022-12-27T22:41:55.366Z,46.10
2022-12-27T22:44:27.288Z,43.50
2022-12-27T22:47:25.675Z,41.20
2022-12-27T22:49:48.453Z,52.60
2022-12-27T22:52:16.342Z,58.20
2022-12-27T22:55:02.904Z,57.70
2022-12-27T22:57:32.226Z,51.10
2022-12-27T23:00:00.295Z,37.20
2022-12-27T23:02:28.435Z,40.00
2022-12-27T23:05:00.273Z,38.10
2022-12-27T23:08:06.160Z,46.00
2022-12-27T23:10:16.507Z,39.90
2022-12-27T23:12:44.690Z,44.50
2022-12-27T23:15:16.178Z,40.40
2022-12-27T23:17:44.096Z,39.70
2022-12-27T23:20:15.444Z,33.00
2022-12-27T23:22:43.636Z,34.90
2022-12-27T23:25:11.506Z,31.70
2022-12-27T23:27:39.476Z,32.80
2022-12-27T23:30:11.135Z,33.40
2022-12-27T23:32:39.062Z,35.50
2022-12-27T23:35:07.559Z,39.40
2022-12-27T23:37:35.639Z,35.20
2022-12-27T23:40:03.954Z,35.80
2022-12-27T23:42:31.979Z,35.80
2022-12-27T23:45:00.018Z,24.60
2022-12-27T23:47:29.119Z,30.40
2022-12-27T23:49:57.177Z,27.30
2022-12-27T23:52:25.194Z,33.20
2022-12-27T23:54:56.147Z,34.50
2022-12-27T23:57:27.618Z,27.90
2022-12-27T23:59:55.637Z,27.90
